sensor_id;sensor_type;location;lat;lon;timestamp;pressure;altitude;pressure_sealevel;temperature;humidity
11888;BME280;6003;42.756;23.130;2023-02-20T00:00:30;154608.31;;;8.54;77.20
11888;BME280;6003;42.756;23.130;2023-02-20T00:02:57;154612.31;;;8.55;77.75
11888;BME280;6003;42.756;23.130;2023-02-20T00:05:24;154593.81;;;8.48;77.88
11888;BME280;6003;42.756;23.130;2023-02-20T00:07:51;154599.09;;;8.50;77.69
11888;BME280;6003;42.756;23.130;2023-02-20T00:10:18;154593.81;;;8.48;77.69
11888;BME280;6003;42.756;23.130;2023-02-20T00:12:45;154592.50;;;8.48;78.42
11888;BME280;6003;42.756;23.130;2023-02-20T00:15:14;154588.56;;;8.46;79.08
11888;BME280;6003;42.756;23.130;2023-02-20T00:17:42;154599.09;;;8.50;77.81
11888;BME280;6003;42.756;23.130;2023-02-20T00:20:12;154584.56;;;8.45;78.66
11888;BME280;6003;42.756;23.130;2023-02-20T00:22:39;154571.38;;;8.40;78.46
11888;BME280;6003;42.756;23.130;2023-02-20T00:25:07;154530.44;;;8.24;78.96
11888;BME280;6003;42.756;23.130;2023-02-20T00:27:34;154535.75;;;8.26;79.75
11888;BME280;6003;42.756;23.130;2023-02-20T00:30:00;154522.53;;;8.21;79.83
11888;BME280;6003;42.756;23.130;2023-02-20T00:32:28;154510.63;;;8.16;79.69
11888;BME280;6003;42.756;23.130;2023-02-20T00:34:56;154493.50;;;8.09;79.29
11888;BME280;6003;42.756;23.130;2023-02-20T00:37:23;154461.88;;;7.97;80.86
11888;BME280;6003;42.756;23.130;2023-02-20T00:39:49;154461.88;;;7.97;80.03
11888;BME280;6003;42.756;23.130;2023-02-20T00:42:16;154459.19;;;7.96;81.02
11888;BME280;6003;42.756;23.130;2023-02-20T00:44:43;154449.97;;;7.93;81.50
11888;BME280;6003;42.756;23.130;2023-02-20T00:47:10;154435.47;;;7.87;81.91
11888;BME280;6003;42.756;23.130;2023-02-20T00:49:36;154435.47;;;7.87;82.34
11888;BME280;6003;42.756;23.130;2023-02-20T00:52:04;154435.47;;;7.87;81.84
11888;BME280;6003;42.756;23.130;2023-02-20T00:54:31;154432.84;;;7.86;81.17
11888;BME280;6003;42.756;23.130;2023-02-20T00:56:58;154422.25;;;7.82;82.65
11888;BME280;6003;42.756;23.130;2023-02-20T00:59:25;154428.84;;;7.84;82.29
11888;BME280;6003;42.756;23.130;2023-02-20T01:01:52;154432.84;;;7.86;82.22
11888;BME280;6003;42.756;23.130;2023-02-20T01:04:19;154448.66;;;7.92;82.67
11888;BME280;6003;42.756;23.130;2023-02-20T01:06:46;154459.19;;;7.96;83.55
11888;BME280;6003;42.756;23.130;2023-02-20T01:09:14;154464.47;;;7.98;83.01
11888;BME280;6003;42.756;23.130;2023-02-20T01:11:42;154475.00;;;8.02;82.96
11888;BME280;6003;42.756;23.130;2023-02-20T01:14:09;154482.91;;;8.05;83.20
11888;BME280;6003;42.756;23.130;2023-02-20T01:16:36;154501.41;;;8.12;82.75
11888;BME280;6003;42.756;23.130;2023-02-20T01:19:03;154506.72;;;8.14;82.53
11888;BME280;6003;42.756;23.130;2023-02-20T01:21:29;154540.97;;;8.28;81.95
11888;BME280;6003;42.756;23.130;2023-02-20T01:23:56;154554.19;;;8.33;81.53
11888;BME280;6003;42.756;23.130;2023-02-20T01:26:25;154538.34;;;8.27;82.33
11888;BME280;6003;42.756;23.130;2023-02-20T01:28:51;154551.56;;;8.32;82.54
11888;BME280;6003;42.756;23.130;2023-02-20T01:31:18;154567.38;;;8.38;82.51
11888;BME280;6003;42.756;23.130;2023-02-20T01:33:45;154567.38;;;8.38;82.73
11888;BME280;6003;42.756;23.130;2023-02-20T01:36:12;154548.91;;;8.31;83.45
11888;BME280;6003;42.756;23.130;2023-02-20T01:38:40;154540.97;;;8.28;84.36
11888;BME280;6003;42.756;23.130;2023-02-20T01:41:08;154527.78;;;8.23;84.20
11888;BME280;6003;42.756;23.130;2023-02-20T01:43:36;154514.63;;;8.18;85.17
11888;BME280;6003;42.756;23.130;2023-02-20T01:46:41;154498.81;;;8.11;84.31
11888;BME280;6003;42.756;23.130;2023-02-20T01:49:11;154477.69;;;8.03;86.25
11888;BME280;6003;42.756;23.130;2023-02-20T01:51:41;154452.59;;;7.94;87.75
11888;BME280;6003;42.756;23.130;2023-02-20T01:54:10;154442.06;;;7.89;87.24
11888;BME280;6003;42.756;23.130;2023-02-20T01:56:40;154423.56;;;7.82;88.68
11888;BME280;6003;42.756;23.130;2023-02-20T01:59:08;154393.25;;;7.71;88.32
11888;BME280;6003;42.756;23.130;2023-02-20T02:01:37;154361.59;;;7.58;89.10
11888;BME280;6003;42.756;23.130;2023-02-20T02:04:07;154337.88;;;7.49;88.70
11888;BME280;6003;42.756;23.130;2023-02-20T02:06:38;154308.88;;;7.38;89.57
11888;BME280;6003;42.756;23.130;2023-02-20T02:09:12;154311.50;;;7.39;89.38
11888;BME280;6003;42.756;23.130;2023-02-20T02:11:43;154293.06;;;7.32;89.47
11888;BME280;6003;42.756;23.130;2023-02-20T02:14:12;154278.56;;;7.26;89.45
11888;BME280;6003;42.756;23.130;2023-02-20T02:16:44;154224.53;;;7.05;90.62
11888;BME280;6003;42.756;23.130;2023-02-20T02:19:31;154216.63;;;7.02;91.01
11888;BME280;6003;42.756;23.130;2023-02-20T02:22:23;154187.63;;;6.91;91.38
11888;BME280;6003;42.756;23.130;2023-02-20T02:25:12;154171.75;;;6.85;92.27
11888;BME280;6003;42.756;23.130;2023-02-20T02:31:35;154133.56;;;6.70;92.17
11888;BME280;6003;42.756;23.130;2023-02-20T02:37:17;154096.66;;;6.55;92.52
11888;BME280;6003;42.756;23.130;2023-02-20T02:39:47;154080.84;;;6.49;93.31
11888;BME280;6003;42.756;23.130;2023-02-20T02:42:26;154062.44;;;6.42;93.56
11888;BME280;6003;42.756;23.130;2023-02-20T02:45:00;154071.66;;;6.46;94.70
11888;BME280;6003;42.756;23.130;2023-02-20T02:47:34;154042.66;;;6.35;94.65
11888;BME280;6003;42.756;23.130;2023-02-20T02:50:05;154029.47;;;6.29;95.91
11888;BME280;6003;42.756;23.130;2023-02-20T02:52:36;154016.34;;;6.24;95.56
11888;BME280;6003;42.756;23.130;2023-02-20T02:55:12;154003.16;;;6.19;95.48
11888;BME280;6003;42.756;23.130;2023-02-20T02:57:39;153995.25;;;6.16;95.75
11888;BME280;6003;42.756;23.130;2023-02-20T03:00:10;153950.47;;;5.99;95.77
11888;BME280;6003;42.756;23.130;2023-02-20T03:02:43;153924.06;;;5.88;96.20
11888;BME280;6003;42.756;23.130;2023-02-20T03:05:14;153929.34;;;5.91;96.67
11888;BME280;6003;42.756;23.130;2023-02-20T03:07:46;153916.19;;;5.85;96.54
11888;BME280;6003;42.756;23.130;2023-02-20T03:10:19;153945.19;;;5.97;96.08
11888;BME280;6003;42.756;23.130;2023-02-20T03:12:58;153939.91;;;5.95;96.15
11888;BME280;6003;42.756;23.130;2023-02-20T03:15:30;153943.91;;;5.96;94.93
11888;BME280;6003;42.756;23.130;2023-02-20T03:18:02;153963.63;;;6.04;95.42
11888;BME280;6003;42.756;23.130;2023-02-20T03:20:36;153966.28;;;6.05;94.55
11888;BME280;6003;42.756;23.130;2023-02-20T03:23:07;153975.50;;;6.08;94.69
11888;BME280;6003;42.756;23.130;2023-02-20T03:25:38;153983.38;;;6.12;94.19
11888;BME280;6003;42.756;23.130;2023-02-20T03:28:08;154003.16;;;6.19;94.00
11888;BME280;6003;42.756;23.130;2023-02-20T03:30:42;154014.97;;;6.24;93.23
11888;BME280;6003;42.756;23.130;2023-02-20T03:33:15;154016.34;;;6.24;92.61
11888;BME280;6003;42.756;23.130;2023-02-20T03:36:02;154013.69;;;6.23;92.26
11888;BME280;6003;42.756;23.130;2023-02-20T03:38:53;154003.16;;;6.19;92.56
11888;BME280;6003;42.756;23.130;2023-02-20T03:41:40;153972.88;;;6.07;92.59
11888;BME280;6003;42.756;23.130;2023-02-20T03:44:27;153997.88;;;6.17;92.42
11888;BME280;6003;42.756;23.130;2023-02-20T03:46:57;154011.06;;;6.22;93.21
11888;BME280;6003;42.756;23.130;2023-02-20T03:49:28;154037.38;;;6.32;92.09
11888;BME280;6003;42.756;23.130;2023-02-20T03:51:57;154063.75;;;6.43;92.86
11888;BME280;6003;42.756;23.130;2023-02-20T03:54:26;154090.06;;;6.53;91.90
11888;BME280;6003;42.756;23.130;2023-02-20T03:56:55;154105.91;;;6.59;90.60
11888;BME280;6003;42.756;23.130;2023-02-20T03:59:27;154111.16;;;6.61;91.27
11888;BME280;6003;42.756;23.130;2023-02-20T04:01:59;154140.16;;;6.72;89.79
11888;BME280;6003;42.756;23.130;2023-02-20T04:04:30;154148.06;;;6.75;89.62
11888;BME280;6003;42.756;23.130;2023-02-20T04:06:59;154177.03;;;6.87;89.12
11888;BME280;6003;42.756;23.130;2023-02-20T04:09:31;154184.94;;;6.90;88.82
11888;BME280;6003;42.756;23.130;2023-02-20T04:12:02;154199.44;;;6.95;88.55
11888;BME280;6003;42.756;23.130;2023-02-20T04:14:30;154207.34;;;6.98;87.92
11888;BME280;6003;42.756;23.130;2023-02-20T04:17:02;154199.44;;;6.95;88.03
11888;BME280;6003;42.756;23.130;2023-02-20T04:19:32;154150.72;;;6.76;88.03
11888;BME280;6003;42.756;23.130;2023-02-20T04:22:01;154119.06;;;6.64;88.88
11888;BME280;6003;42.756;23.130;2023-02-20T04:24:34;154099.31;;;6.57;88.40
11888;BME280;6003;42.756;23.130;2023-02-20T04:27:03;154062.44;;;6.42;89.06
11888;BME280;6003;42.756;23.130;2023-02-20T04:29:30;154018.97;;;6.25;89.55
11888;BME280;6003;42.756;23.130;2023-02-20T04:31:57;153982.06;;;6.11;89.92
11888;BME280;6003;42.756;23.130;2023-02-20T04:34:24;153972.88;;;6.07;89.33
11888;BME280;6003;42.756;23.130;2023-02-20T04:36:54;153953.09;;;6.00;89.55
11888;BME280;6003;42.756;23.130;2023-02-20T04:39:26;153954.41;;;6.00;89.19
11888;BME280;6003;42.756;23.130;2023-02-20T04:41:54;153934.59;;;5.93;88.33
11888;BME280;6003;42.756;23.130;2023-02-20T04:44:20;153913.56;;;5.84;87.19
11888;BME280;6003;42.756;23.130;2023-02-20T04:47:02;153904.31;;;5.81;86.97
11888;BME280;6003;42.756;23.130;2023-02-20T04:49:29;153892.50;;;5.76;85.82
11888;BME280;6003;42.756;23.130;2023-02-20T04:51:56;153871.41;;;5.68;85.71
11888;BME280;6003;42.756;23.130;2023-02-20T04:54:23;153860.91;;;5.64;85.25
11888;BME280;6003;42.756;23.130;2023-02-20T04:56:50;153842.44;;;5.57;85.52
11888;BME280;6003;42.756;23.130;2023-02-20T04:59:19;153847.72;;;5.59;83.58
11888;BME280;6003;42.756;23.130;2023-02-20T05:01:46;153847.72;;;5.59;83.43
11888;BME280;6003;42.756;23.130;2023-02-20T05:04:16;153847.72;;;5.59;82.88
11888;BME280;6003;42.756;23.130;2023-02-20T05:06:45;153856.94;;;5.62;82.55
11888;BME280;6003;42.756;23.130;2023-02-20T05:09:12;153847.72;;;5.59;83.16
11888;BME280;6003;42.756;23.130;2023-02-20T05:11:39;153852.97;;;5.61;83.23
11888;BME280;6003;42.756;23.130;2023-02-20T05:14:06;153837.16;;;5.55;82.93
11888;BME280;6003;42.756;23.130;2023-02-20T05:16:36;153837.16;;;5.55;84.04
11888;BME280;6003;42.756;23.130;2023-02-20T05:19:02;153839.84;;;5.56;84.29
11888;BME280;6003;42.756;23.130;2023-02-20T05:21:29;153825.34;;;5.50;84.44
11888;BME280;6003;42.756;23.130;2023-02-20T05:24:14;153829.28;;;5.52;84.63
11888;BME280;6003;42.756;23.130;2023-02-20T05:26:41;153851.66;;;5.60;85.24
11888;BME280;6003;42.756;23.130;2023-02-20T05:29:07;153850.34;;;5.60;85.84
11888;BME280;6003;42.756;23.130;2023-02-20T05:31:38;153863.50;;;5.65;86.37
11888;BME280;6003;42.756;23.130;2023-02-20T05:34:05;153852.97;;;5.61;85.92
11888;BME280;6003;42.756;23.130;2023-02-20T05:36:31;153867.44;;;5.66;86.03
11888;BME280;6003;42.756;23.130;2023-02-20T05:38:58;153881.94;;;5.72;85.70
11888;BME280;6003;42.756;23.130;2023-02-20T05:41:25;153892.50;;;5.76;85.86
11888;BME280;6003;42.756;23.130;2023-02-20T05:43:52;153903.00;;;5.80;85.48
11888;BME280;6003;42.756;23.130;2023-02-20T05:46:23;153929.34;;;5.91;85.51
11888;BME280;6003;42.756;23.130;2023-02-20T05:48:52;153949.13;;;5.98;85.52
11888;BME280;6003;42.756;23.130;2023-02-20T05:51:21;153968.91;;;6.06;84.58
11888;BME280;6003;42.756;23.130;2023-02-20T05:53:47;153976.78;;;6.09;83.88
11888;BME280;6003;42.756;23.130;2023-02-20T05:56:14;154005.78;;;6.20;84.18
11888;BME280;6003;42.756;23.130;2023-02-20T05:58:41;154032.16;;;6.30;82.59
11888;BME280;6003;42.756;23.130;2023-02-20T06:01:15;154049.25;;;6.37;80.23
11888;BME280;6003;42.756;23.130;2023-02-20T06:03:42;154076.94;;;6.48;79.16
11888;BME280;6003;42.756;23.130;2023-02-20T06:06:10;154111.16;;;6.61;78.15
11888;BME280;6003;42.756;23.130;2023-02-20T06:08:37;154137.53;;;6.71;76.81
11888;BME280;6003;42.756;23.130;2023-02-20T06:11:04;154169.13;;;6.84;77.00
11888;BME280;6003;42.756;23.130;2023-02-20T06:13:31;154206.03;;;6.98;77.05
11888;BME280;6003;42.756;23.130;2023-02-20T06:15:58;154235.03;;;7.09;76.43
11888;BME280;6003;42.756;23.130;2023-02-20T06:18:25;154279.88;;;7.27;75.32
11888;BME280;6003;42.756;23.130;2023-02-20T06:20:52;154326.00;;;7.44;75.52
11888;BME280;6003;42.756;23.130;2023-02-20T06:23:20;154355.00;;;7.56;75.70
11888;BME280;6003;42.756;23.130;2023-02-20T06:25:47;154395.91;;;7.72;73.08
11888;BME280;6003;42.756;23.130;2023-02-20T06:28:14;154415.66;;;7.79;71.50
11888;BME280;6003;42.756;23.130;2023-02-20T06:30:40;154448.66;;;7.92;72.19
11888;BME280;6003;42.756;23.130;2023-02-20T06:33:07;154464.47;;;7.98;70.29
11888;BME280;6003;42.756;23.130;2023-02-20T06:35:34;154476.38;;;8.03;71.03
11888;BME280;6003;42.756;23.130;2023-02-20T06:38:01;154440.75;;;7.89;71.79
11888;BME280;6003;42.756;23.130;2023-02-20T06:40:29;154443.38;;;7.90;70.67
11888;BME280;6003;42.756;23.130;2023-02-20T06:43:05;154385.34;;;7.67;70.34
11888;BME280;6003;42.756;23.130;2023-02-20T06:45:32;154401.16;;;7.74;70.59
11888;BME280;6003;42.756;23.130;2023-02-20T06:47:59;154422.25;;;7.82;71.08
11888;BME280;6003;42.756;23.130;2023-02-20T06:50:26;154394.59;;;7.71;71.24
11888;BME280;6003;42.756;23.130;2023-02-20T06:52:52;154388.00;;;7.68;70.96
11888;BME280;6003;42.756;23.130;2023-02-20T06:55:19;154390.63;;;7.69;70.74
11888;BME280;6003;42.756;23.130;2023-02-20T06:57:47;154401.16;;;7.74;70.40
11888;BME280;6003;42.756;23.130;2023-02-20T07:00:17;154427.53;;;7.84;70.38
11888;BME280;6003;42.756;23.130;2023-02-20T07:02:44;154456.56;;;7.95;70.43
11888;BME280;6003;42.756;23.130;2023-02-20T07:05:11;154490.84;;;8.08;69.20
11888;BME280;6003;42.756;23.130;2023-02-20T07:07:38;154514.63;;;8.18;66.88
11888;BME280;6003;42.756;23.130;2023-02-20T07:10:06;154525.16;;;8.22;69.16
11888;BME280;6003;42.756;23.130;2023-02-20T07:12:33;154567.38;;;8.38;66.34
11888;BME280;6003;42.756;23.130;2023-02-20T07:15:04;154519.88;;;8.20;65.39
11888;BME280;6003;42.756;23.130;2023-02-20T07:17:32;154480.31;;;8.04;65.63
11888;BME280;6003;42.756;23.130;2023-02-20T07:19:58;154521.22;;;8.20;66.08
11888;BME280;6003;42.756;23.130;2023-02-20T07:22:25;154504.03;;;8.13;64.95
11888;BME280;6003;42.756;23.130;2023-02-20T07:24:53;154485.59;;;8.06;65.08
11888;BME280;6003;42.756;23.130;2023-02-20T07:27:20;154440.75;;;7.89;65.33
11888;BME280;6003;42.756;23.130;2023-02-20T07:29:48;154432.84;;;7.86;64.96
11888;BME280;6003;42.756;23.130;2023-02-20T07:32:16;154446.00;;;7.91;64.65
11888;BME280;6003;42.756;23.130;2023-02-20T07:34:45;154467.09;;;7.99;65.89
11888;BME280;6003;42.756;23.130;2023-02-20T07:37:12;154482.91;;;8.05;65.25
11888;BME280;6003;42.756;23.130;2023-02-20T07:39:38;154464.47;;;7.98;64.86
11888;BME280;6003;42.756;23.130;2023-02-20T07:42:05;154439.44;;;7.88;64.88
11888;BME280;6003;42.756;23.130;2023-02-20T07:44:32;154382.72;;;7.66;65.16
11888;BME280;6003;42.756;23.130;2023-02-20T07:47:00;154417.03;;;7.80;65.77
11888;BME280;6003;42.756;23.130;2023-02-20T07:49:28;154388.00;;;7.68;64.75
11888;BME280;6003;42.756;23.130;2023-02-20T07:51:55;154394.59;;;7.71;64.17
11888;BME280;6003;42.756;23.130;2023-02-20T07:54:22;154448.66;;;7.92;63.98
11888;BME280;6003;42.756;23.130;2023-02-20T07:56:49;154475.00;;;8.02;64.35
11888;BME280;6003;42.756;23.130;2023-02-20T07:59:15;154551.56;;;8.32;62.69
11888;BME280;6003;42.756;23.130;2023-02-20T08:01:43;154580.66;;;8.43;61.89
11888;BME280;6003;42.756;23.130;2023-02-20T08:04:10;154577.97;;;8.42;61.58
11888;BME280;6003;42.756;23.130;2023-02-20T08:06:38;154649.25;;;8.70;61.63
11888;BME280;6003;42.756;23.130;2023-02-20T08:09:04;154704.66;;;8.91;60.93
11888;BME280;6003;42.756;23.130;2023-02-20T08:11:33;154694.13;;;8.87;60.42
11888;BME280;6003;42.756;23.130;2023-02-20T08:14:00;154665.09;;;8.76;59.36
11888;BME280;6003;42.756;23.130;2023-02-20T14:12:59;155266.25;;;11.09;51.70
11888;BME280;6003;42.756;23.130;2023-02-20T14:15:27;155299.28;;;11.21;51.10
11888;BME280;6003;42.756;23.130;2023-02-20T14:17:56;155243.78;;;11.00;51.65
11888;BME280;6003;42.756;23.130;2023-02-20T14:20:25;155209.38;;;10.87;52.00
11888;BME280;6003;42.756;23.130;2023-02-20T14:23:08;155145.94;;;10.62;52.05
11888;BME280;6003;42.756;23.130;2023-02-20T14:25:36;155074.56;;;10.34;52.90
11888;BME280;6003;42.756;23.130;2023-02-20T14:28:07;155086.47;;;10.39;53.12
11888;BME280;6003;42.756;23.130;2023-02-20T14:30:36;155095.72;;;10.43;53.11
11888;BME280;6003;42.756;23.130;2023-02-20T14:33:09;155082.47;;;10.37;53.06
11888;BME280;6003;42.756;23.130;2023-02-20T14:36:10;155083.81;;;10.38;53.95
11888;BME280;6003;42.756;23.130;2023-02-20T14:38:54;155069.25;;;10.32;53.88
11888;BME280;6003;42.756;23.130;2023-02-20T14:41:26;155060.03;;;10.29;54.01
11888;BME280;6003;42.756;23.130;2023-02-20T14:43:56;155064.00;;;10.30;54.31
11888;BME280;6003;42.756;23.130;2023-02-20T14:46:25;155066.63;;;10.31;54.59
11888;BME280;6003;42.756;23.130;2023-02-20T14:49:14;155085.13;;;10.38;54.61
11888;BME280;6003;42.756;23.130;2023-02-20T14:51:41;155077.19;;;10.35;54.72
11888;BME280;6003;42.756;23.130;2023-02-20T14:54:17;155046.75;;;10.24;54.33
11888;BME280;6003;42.756;23.130;2023-02-20T14:56:45;155016.34;;;10.12;54.29
11888;BME280;6003;42.756;23.130;2023-02-20T14:59:32;154966.13;;;9.92;54.69
11888;BME280;6003;42.756;23.130;2023-02-20T15:02:01;154952.97;;;9.87;55.39
11888;BME280;6003;42.756;23.130;2023-02-20T15:04:29;154972.75;;;9.95;55.82
11888;BME280;6003;42.756;23.130;2023-02-20T15:07:03;154941.06;;;9.83;55.92
11888;BME280;6003;42.756;23.130;2023-02-20T15:09:36;154925.22;;;9.77;56.50
11888;BME280;6003;42.756;23.130;2023-02-20T15:12:04;154900.13;;;9.67;56.43
11888;BME280;6003;42.756;23.130;2023-02-20T15:14:40;154882.94;;;9.60;56.35
11888;BME280;6003;42.756;23.130;2023-02-20T15:17:19;154873.69;;;9.57;56.19
11888;BME280;6003;42.756;23.130;2023-02-20T15:19:46;154836.72;;;9.42;57.67
11888;BME280;6003;42.756;23.130;2023-02-20T15:22:43;154790.50;;;9.24;57.47
11888;BME280;6003;42.756;23.130;2023-02-20T15:25:25;154756.16;;;9.11;57.89
11888;BME280;6003;42.756;23.130;2023-02-20T15:28:03;154725.81;;;8.99;58.99
11888;BME280;6003;42.756;23.130;2023-02-20T15:30:32;154711.28;;;8.94;59.76
11888;BME280;6003;42.756;23.130;2023-02-20T15:32:59;154691.50;;;8.86;59.99
11888;BME280;6003;42.756;23.130;2023-02-20T15:35:27;154677.00;;;8.80;59.23
11888;BME280;6003;42.756;23.130;2023-02-20T15:37:59;154667.72;;;8.77;59.99
11888;BME280;6003;42.756;23.130;2023-02-20T15:40:28;154642.66;;;8.67;60.11
11888;BME280;6003;42.756;23.130;2023-02-20T15:42:55;154614.94;;;8.56;60.37
11888;BME280;6003;42.756;23.130;2023-02-20T15:45:22;154595.16;;;8.49;60.41
11888;BME280;6003;42.756;23.130;2023-02-20T15:47:50;154548.91;;;8.31;60.44
11888;BME280;6003;42.756;23.130;2023-02-20T15:50:17;154529.13;;;8.23;61.09
11888;BME280;6003;42.756;23.130;2023-02-20T15:52:46;154484.28;;;8.06;62.17
11888;BME280;6003;42.756;23.130;2023-02-20T15:55:14;154467.09;;;7.99;63.53
11888;BME280;6003;42.756;23.130;2023-02-20T15:57:42;154436.78;;;7.87;62.86
11888;BME280;6003;42.756;23.130;2023-02-20T16:00:17;154419.63;;;7.81;63.35
11888;BME280;6003;42.756;23.130;2023-02-20T16:02:44;154411.72;;;7.78;63.35
11888;BME280;6003;42.756;23.130;2023-02-20T16:05:13;154389.31;;;7.69;64.39
11888;BME280;6003;42.756;23.130;2023-02-20T16:07:40;154377.41;;;7.64;64.73
11888;BME280;6003;42.756;23.130;2023-02-20T16:10:08;154364.22;;;7.59;64.13
11888;BME280;6003;42.756;23.130;2023-02-20T16:12:35;154345.78;;;7.52;64.99
11888;BME280;6003;42.756;23.130;2023-02-20T16:15:03;154340.50;;;7.50;63.81
11888;BME280;6003;42.756;23.130;2023-02-20T16:17:32;154322.06;;;7.43;64.85
11888;BME280;6003;42.756;23.130;2023-02-20T16:20:00;154300.97;;;7.35;64.79
11888;BME280;6003;42.756;23.130;2023-02-20T16:22:28;154287.78;;;7.30;65.71
11888;BME280;6003;42.756;23.130;2023-02-20T16:24:55;154271.97;;;7.23;65.30
11888;BME280;6003;42.756;23.130;2023-02-20T16:27:24;154271.97;;;7.23;64.92
11888;BME280;6003;42.756;23.130;2023-02-20T16:29:51;154267.97;;;7.22;65.03
11888;BME280;6003;42.756;23.130;2023-02-20T16:32:23;154265.34;;;7.21;65.67
11888;BME280;6003;42.756;23.130;2023-02-20T16:34:51;154264.06;;;7.20;65.17
11888;BME280;6003;42.756;23.130;2023-02-20T16:37:19;154245.56;;;7.13;65.91
11888;BME280;6003;42.756;23.130;2023-02-20T16:39:47;154213.94;;;7.01;65.89
11888;BME280;6003;42.756;23.130;2023-02-20T16:42:26;154212.63;;;7.00;67.04
11888;BME280;6003;42.756;23.130;2023-02-20T16:44:54;154199.44;;;6.95;67.35
11888;BME280;6003;42.756;23.130;2023-02-20T16:47:25;154188.94;;;6.91;66.84
11888;BME280;6003;42.756;23.130;2023-02-20T16:49:52;154181.03;;;6.88;66.39
11888;BME280;6003;42.756;23.130;2023-02-20T16:52:24;154163.84;;;6.82;66.92
11888;BME280;6003;42.756;23.130;2023-02-20T16:54:53;154150.72;;;6.76;67.75
11888;BME280;6003;42.756;23.130;2023-02-20T16:57:21;154154.66;;;6.78;67.36
11888;BME280;6003;42.756;23.130;2023-02-20T16:59:49;154155.94;;;6.78;67.89
11888;BME280;6003;42.756;23.130;2023-02-20T17:02:19;154145.44;;;6.74;68.13
11888;BME280;6003;42.756;23.130;2023-02-20T17:04:46;154138.84;;;6.72;67.71
11888;BME280;6003;42.756;23.130;2023-02-20T17:07:14;154120.41;;;6.65;67.90
11888;BME280;6003;42.756;23.130;2023-02-20T17:09:41;154100.63;;;6.57;68.84
11888;BME280;6003;42.756;23.130;2023-02-20T17:12:09;154078.25;;;6.48;68.52
11888;BME280;6003;42.756;23.130;2023-02-20T17:14:36;154051.88;;;6.38;69.13
11888;BME280;6003;42.756;23.130;2023-02-20T17:17:03;154004.47;;;6.20;70.77
11888;BME280;6003;42.756;23.130;2023-02-20T17:19:31;154005.78;;;6.20;70.56
11888;BME280;6003;42.756;23.130;2023-02-20T17:21:58;153986.00;;;6.13;70.56
11888;BME280;6003;42.756;23.130;2023-02-20T17:24:25;153947.81;;;5.98;70.61
11888;BME280;6003;42.756;23.130;2023-02-20T17:26:52;153924.06;;;5.88;70.91
11888;BME280;6003;42.756;23.130;2023-02-20T17:29:21;153899.06;;;5.79;71.57
11888;BME280;6003;42.756;23.130;2023-02-20T17:31:48;153916.19;;;5.85;71.93
11888;BME280;6003;42.756;23.130;2023-02-20T17:34:15;153895.09;;;5.77;71.67
11888;BME280;6003;42.756;23.130;2023-02-20T17:36:41;153895.09;;;5.77;71.04
11888;BME280;6003;42.756;23.130;2023-02-20T17:39:14;153867.44;;;5.66;71.73
11888;BME280;6003;42.756;23.130;2023-02-20T17:41:41;153871.41;;;5.68;71.74
11888;BME280;6003;42.756;23.130;2023-02-20T17:44:08;153849.03;;;5.59;72.23
11888;BME280;6003;42.756;23.130;2023-02-20T17:46:36;153847.72;;;5.59;72.33
11888;BME280;6003;42.756;23.130;2023-02-20T17:49:03;153837.16;;;5.55;73.22
11888;BME280;6003;42.756;23.130;2023-02-20T17:51:30;153863.50;;;5.65;72.39
11888;BME280;6003;42.756;23.130;2023-02-20T17:53:57;153834.56;;;5.54;72.65
11888;BME280;6003;42.756;23.130;2023-02-20T17:56:24;153826.66;;;5.51;73.32
11888;BME280;6003;42.756;23.130;2023-02-20T17:58:51;153814.78;;;5.46;73.53
11888;BME280;6003;42.756;23.130;2023-02-20T18:01:18;153810.88;;;5.45;73.49
11888;BME280;6003;42.756;23.130;2023-02-20T18:03:48;153783.22;;;5.34;73.77
11888;BME280;6003;42.756;23.130;2023-02-20T18:06:14;153766.13;;;5.27;74.27
11888;BME280;6003;42.756;23.130;2023-02-20T18:08:41;153724.00;;;5.11;74.45
11888;BME280;6003;42.756;23.130;2023-02-20T18:11:08;153739.78;;;5.17;74.59
11888;BME280;6003;42.756;23.130;2023-02-20T18:13:35;153758.22;;;5.24;74.40
11888;BME280;6003;42.756;23.130;2023-02-20T18:16:02;153750.34;;;5.21;73.80
11888;BME280;6003;42.756;23.130;2023-02-20T18:18:29;153708.22;;;5.05;74.55
11888;BME280;6003;42.756;23.130;2023-02-20T18:20:57;153681.88;;;4.94;75.20
11888;BME280;6003;42.756;23.130;2023-02-20T18:23:24;153708.22;;;5.05;74.82
11888;BME280;6003;42.756;23.130;2023-02-20T18:25:51;153692.44;;;4.98;74.95
11888;BME280;6003;42.756;23.130;2023-02-20T18:28:20;153658.19;;;4.85;74.70
11888;BME280;6003;42.756;23.130;2023-02-20T18:30:47;153664.78;;;4.88;75.56
11888;BME280;6003;42.756;23.130;2023-02-20T18:33:14;153660.84;;;4.86;75.86
11888;BME280;6003;42.756;23.130;2023-02-20T18:35:41;153635.84;;;4.77;76.19
11888;BME280;6003;42.756;23.130;2023-02-20T18:38:09;153639.81;;;4.78;75.96
11888;BME280;6003;42.756;23.130;2023-02-20T18:40:35;153650.31;;;4.82;76.08
11888;BME280;6003;42.756;23.130;2023-02-20T18:43:02;153637.13;;;4.77;76.16
11888;BME280;6003;42.756;23.130;2023-02-20T18:45:29;153624.03;;;4.72;76.50
11888;BME280;6003;42.756;23.130;2023-02-20T18:47:56;153618.75;;;4.70;76.89
11888;BME280;6003;42.756;23.130;2023-02-20T18:50:23;153631.91;;;4.75;76.89
11888;BME280;6003;42.756;23.130;2023-02-20T18:52:50;153617.44;;;4.69;76.83
11888;BME280;6003;42.756;23.130;2023-02-20T18:55:18;153614.78;;;4.68;77.12
11888;BME280;6003;42.756;23.130;2023-02-20T18:57:46;153600.31;;;4.63;77.43
11888;BME280;6003;42.756;23.130;2023-02-20T19:00:15;153602.97;;;4.64;77.29
11888;BME280;6003;42.756;23.130;2023-02-20T19:02:42;153591.09;;;4.59;77.22
11888;BME280;6003;42.756;23.130;2023-02-20T19:05:09;153595.06;;;4.61;78.07
11888;BME280;6003;42.756;23.130;2023-02-20T19:07:40;153614.78;;;4.68;77.56
11888;BME280;6003;42.756;23.130;2023-02-20T19:10:07;153602.97;;;4.64;77.50
11888;BME280;6003;42.756;23.130;2023-02-20T19:12:35;153621.34;;;4.71;76.99
11888;BME280;6003;42.756;23.130;2023-02-20T19:15:03;153584.53;;;4.57;77.96